Time;durP1;ratioP1;P1;durP2;ratioP2;P2;SDS_P1;SDS_P2;PMS_P1;PMS_P2;Temp;Humidity;BMP_temperature;BMP_pressure;BME280_temperature;BME280_humidity;BME280_pressure;Samples;Min_cycle;Max_cycle;Signal;HPM_P1;HPM_P2
2023/01/04 00:00:19;;;;;;;14.20;3.13;;;20.90;62.80;;;;;;5079921;28;20127;-68
2023/01/04 00:02:45;;;;;;;13.55;2.80;;;20.80;62.40;;;;;;5077042;28;20124;-69
2023/01/04 00:05:12;;;;;;;10.45;3.03;;;20.80;63.00;;;;;;5073516;28;20077;-70
2023/01/04 00:07:38;;;;;;;13.38;3.03;;;20.70;63.40;;;;;;5070155;28;20469;-69
2023/01/04 00:10:05;;;;;;;11.60;3.08;;;20.70;64.20;;;;;;5074632;28;20065;-69
2023/01/04 00:12:31;;;;;;;9.70;2.72;;;20.70;64.10;;;;;;5074394;28;20099;-69
2023/01/04 00:14:57;;;;;;;15.45;3.22;;;20.70;64.00;;;;;;5077366;28;20501;-69
2023/01/04 00:17:24;;;;;;;15.75;3.30;;;20.70;64.40;;;;;;5071887;28;20069;-68
2023/01/04 00:19:50;;;;;;;18.23;4.35;;;20.70;64.20;;;;;;5078858;28;20088;-68
2023/01/04 00:22:16;;;;;;;21.35;3.45;;;20.60;64.30;;;;;;5078746;28;20061;-71
2023/01/04 00:24:43;;;;;;;18.13;3.30;;;20.60;64.60;;;;;;5081316;28;20101;-69
2023/01/04 00:27:09;;;;;;;13.02;3.47;;;20.50;64.10;;;;;;5077360;28;20141;-69
2023/01/04 00:29:36;;;;;;;11.40;2.88;;;20.50;64.00;;;;;;5079776;28;20156;-70
2023/01/04 00:32:02;;;;;;;15.85;2.85;;;20.40;63.20;;;;;;5075378;28;20065;-69
2023/01/04 00:34:29;;;;;;;15.10;2.65;;;20.30;63.20;;;;;;5081305;28;20125;-69
2023/01/04 00:36:55;;;;;;;14.25;2.90;;;20.30;63.10;;;;;;5073055;28;20073;-68
2023/01/04 00:39:21;;;;;;;14.93;2.75;;;20.30;64.10;;;;;;5080512;28;20452;-72
2023/01/04 00:41:50;;;;;;;14.57;2.75;;;20.20;63.80;;;;;;5079413;28;20540;-70
2023/01/04 00:44:20;;;;;;;19.48;3.40;;;20.10;64.00;;;;;;5080327;28;20145;-67
2023/01/04 00:46:47;;;;;;;8.57;3.05;;;20.10;64.40;;;;;;5077460;28;20085;-70
2023/01/04 00:49:14;;;;;;;15.98;2.83;;;20.10;64.80;;;;;;5077633;28;20072;-71
2023/01/04 00:51:41;;;;;;;10.27;2.63;;;20.10;63.90;;;;;;5079001;28;20222;-68
2023/01/04 00:54:14;;;;;;;12.10;4.00;;;20.10;64.30;;;;;;5078078;28;20143;-69
2023/01/04 00:56:41;;;;;;;20.70;4.10;;;20.10;64.50;;;;;;5075477;28;20073;-71
2023/01/04 00:59:10;;;;;;;21.20;3.83;;;20.00;64.90;;;;;;5075734;28;20109;-70
2023/01/04 01:01:36;;;;;;;19.15;3.95;;;20.00;65.00;;;;;;5072839;28;20573;-69
2023/01/04 01:04:04;;;;;;;17.10;3.95;;;20.00;64.80;;;;;;5079384;28;20072;-70
2023/01/04 01:06:32;;;;;;;16.52;4.05;;;20.00;65.00;;;;;;5076089;28;20171;-70
2023/01/04 01:08:58;;;;;;;27.77;5.80;;;20.00;64.90;;;;;;5081582;28;20073;-68
2023/01/04 01:11:25;;;;;;;21.83;4.90;;;19.90;65.00;;;;;;5076779;28;20445;-68
2023/01/04 01:13:53;;;;;;;19.13;4.47;;;20.00;65.40;;;;;;5077114;28;20077;-69
2023/01/04 01:16:22;;;;;;;16.95;3.15;;;19.90;65.20;;;;;;5077392;28;20454;-69
2023/01/04 01:18:48;;;;;;;23.10;4.55;;;19.90;65.70;;;;;;5075021;28;20152;-69
2023/01/04 01:21:18;;;;;;;19.50;4.55;;;19.80;66.30;;;;;;5083659;28;20122;-69
2023/01/04 01:23:45;;;;;;;21.35;4.63;;;19.80;67.00;;;;;;5075485;28;20083;-69
2023/01/04 01:26:14;;;;;;;13.23;3.45;;;19.70;67.20;;;;;;5081064;28;20108;-70
2023/01/04 01:28:40;;;;;;;14.65;3.97;;;19.70;67.30;;;;;;5073049;28;20442;-69
2023/01/04 01:31:12;;;;;;;21.52;3.95;;;19.70;67.80;;;;;;5080007;28;20548;-69
2023/01/04 01:33:40;;;;;;;23.30;3.75;;;19.60;67.70;;;;;;5077801;28;20077;-67
2023/01/04 01:36:08;;;;;;;18.77;3.55;;;19.60;67.70;;;;;;5079356;28;20072;-69
2023/01/04 01:38:36;;;;;;;21.38;4.10;;;19.60;67.70;;;;;;5075517;28;20939;-69
2023/01/04 01:41:03;;;;;;;17.42;3.80;;;19.50;68.40;;;;;;5075472;28;20073;-69
2023/01/04 01:43:57;;;;;;;17.75;3.40;;;19.50;68.20;;;;;;5076182;28;20077;-70
2023/01/04 01:46:45;;;;;;;15.55;3.53;;;19.50;68.10;;;;;;5071066;28;20077;-70
2023/01/04 01:49:22;;;;;;;24.13;4.18;;;19.40;68.10;;;;;;5079419;28;20077;-68
2023/01/04 01:51:49;;;;;;;20.38;6.30;;;19.30;68.00;;;;;;5079116;28;20098;-69
2023/01/04 01:54:21;;;;;;;14.63;5.60;;;19.30;68.10;;;;;;5076719;28;20076;-69
2023/01/04 01:56:50;;;;;;;23.58;7.35;;;19.20;67.90;;;;;;5077891;28;20568;-71
2023/01/04 01:59:17;;;;;;;25.00;6.28;;;19.20;68.30;;;;;;5080062;28;20506;-70
2023/01/04 02:01:44;;;;;;;27.77;5.50;;;19.20;67.90;;;;;;5078577;28;20115;-70
2023/01/04 02:04:11;;;;;;;20.25;6.20;;;19.10;67.80;;;;;;5084977;28;20080;-71
2023/01/04 02:06:47;;;;;;;20.20;4.70;;;19.10;67.70;;;;;;5077767;28;20104;-68
2023/01/04 02:09:14;;;;;;;22.08;4.70;;;19.10;67.90;;;;;;5079033;28;20130;-69
2023/01/04 02:11:41;;;;;;;21.20;5.03;;;19.00;68.30;;;;;;5084273;28;20077;-70
2023/01/04 02:14:26;;;;;;;15.15;3.95;;;19.00;68.70;;;;;;5078355;28;20501;-69
2023/01/04 02:17:03;;;;;;;21.05;5.10;;;18.90;69.20;;;;;;5080579;28;20072;-71
2023/01/04 02:19:47;;;;;;;;;;;18.90;69.80;;;;;;5082228;28;20076;-70
2023/01/04 02:22:53;;;;;;;17.23;4.38;;;18.80;70.40;;;;;;5082915;28;20021;-67
2023/01/04 02:25:38;;;;;;;26.23;5.20;;;18.70;71.10;;;;;;5076979;28;20108;-71
2023/01/04 02:28:32;;;;;;;23.15;3.67;;;18.60;71.40;;;;;;5076665;28;20112;-70
2023/01/04 02:31:25;;;;;;;18.23;4.50;;;18.60;72.10;;;;;;5013330;28;20444;-70
2023/01/04 02:34:12;;;;;;;24.02;4.05;;;18.50;72.90;;;;;;5029979;28;20129;-71
2023/01/04 02:36:48;;;;;;;23.77;3.83;;;18.50;73.70;;;;;;5028803;28;20539;-70
2023/01/04 02:39:55;;;;;;;24.85;4.32;;;18.40;74.40;;;;;;5028860;28;20074;-71
2023/01/04 02:44:51;;;;;;;26.92;4.43;;;18.40;75.10;;;;;;5030431;28;20082;-74
2023/01/04 02:45:20;;;;;;;20.08;4.38;;;18.40;75.90;;;;;;5030184;28;20076;-70
2023/01/04 02:50:36;;;;;;;25.50;4.53;;;18.30;77.20;;;;;;5029930;28;20088;-71
2023/01/04 02:53:02;;;;;;;25.20;4.50;;;18.20;77.60;;;;;;5029877;28;20082;-68
2023/01/04 02:56:02;;;;;;;24.83;4.82;;;18.20;77.70;;;;;;5030108;28;20074;-70
2023/01/04 02:58:36;;;;;;;20.67;3.72;;;18.20;78.10;;;;;;5029729;28;20074;-69
2023/01/04 03:07:09;;;;;;;18.73;5.13;;;18.00;81.60;;;;;;5033272;28;20136;-73
2023/01/04 03:09:41;;;;;;;23.73;6.13;;;18.00;82.20;;;;;;5082827;28;20065;-72
2023/01/04 03:12:32;;;;;;;27.92;6.63;;;17.90;82.40;;;;;;5077622;28;20434;-71
2023/01/04 03:15:11;;;;;;;26.60;6.53;;;17.80;82.20;;;;;;5079429;28;20075;-71
2023/01/04 03:17:47;;;;;;;27.15;6.30;;;17.80;81.70;;;;;;5079496;28;20155;-66
2023/01/04 03:20:17;;;;;;;27.20;5.80;;;17.80;80.30;;;;;;5088947;28;20155;-69
2023/01/04 03:37:26;;;;;;;23.77;6.00;;;17.70;79.40;;;;;;5084728;28;20158;-69
2023/01/04 03:49:22;;;;;;;32.60;8.57;;;17.50;85.00;;;;;;5083510;28;20134;-70
2023/01/04 03:51:53;;;;;;;33.20;7.15;;;17.50;87.60;;;;;;5082895;28;20168;-69
2023/01/04 03:54:36;;;;;;;36.58;6.95;;;17.50;90.00;;;;;;5079283;28;20176;-70
2023/01/04 03:57:04;;;;;;;38.55;6.18;;;17.40;91.00;;;;;;5083315;28;20073;-69
2023/01/04 03:59:31;;;;;;;27.90;5.43;;;17.40;91.90;;;;;;5083579;28;20081;-69
2023/01/04 04:01:58;;;;;;;26.35;5.47;;;17.40;92.50;;;;;;5080313;28;20446;-70
2023/01/04 04:09:53;;;;;;;32.63;6.22;;;17.40;94.60;;;;;;5072711;28;20157;-70
2023/01/04 04:12:20;;;;;;;30.65;5.68;;;17.40;95.30;;;;;;5080361;28;20569;-69
2023/01/04 04:14:46;;;;;;;32.70;5.88;;;17.30;95.70;;;;;;5080005;28;20081;-69
2023/01/04 04:17:13;;;;;;;29.55;5.68;;;17.30;96.10;;;;;;5076092;28;20085;-70
2023/01/04 04:19:39;;;;;;;26.48;5.63;;;17.30;96.30;;;;;;5080487;28;20168;-68
2023/01/04 04:22:05;;;;;;;26.73;5.38;;;17.30;96.80;;;;;;5076211;28;20569;-68
2023/01/04 04:24:32;;;;;;;33.20;5.95;;;17.20;96.90;;;;;;5077085;28;20120;-70
2023/01/04 04:26:58;;;;;;;31.08;5.07;;;17.30;97.20;;;;;;5082602;28;20489;-70
2023/01/04 04:29:25;;;;;;;29.70;7.07;;;17.30;97.30;;;;;;5075430;28;20326;-68
2023/01/04 04:31:51;;;;;;;34.83;5.78;;;17.30;97.50;;;;;;5079417;28;20418;-69
2023/01/04 04:34:18;;;;;;;31.13;5.75;;;17.30;97.40;;;;;;5076879;28;20095;-70
2023/01/04 04:36:44;;;;;;;31.45;5.35;;;17.30;97.70;;;;;;5077870;28;20081;-66
2023/01/04 04:39:11;;;;;;;25.40;4.78;;;17.40;97.80;;;;;;5083534;28;20098;-69
2023/01/04 04:41:40;;;;;;;23.67;4.80;;;17.40;97.90;;;;;;5083313;28;20622;-69
2023/01/04 04:44:24;;;;;;;22.65;4.80;;;17.30;98.10;;;;;;5080760;28;20069;-69
2023/01/04 04:46:50;;;;;;;19.50;4.38;;;17.30;98.10;;;;;;5076726;28;20154;-70
2023/01/04 04:49:17;;;;;;;28.30;6.18;;;17.30;98.20;;;;;;5081809;28;20089;-68
2023/01/04 04:51:45;;;;;;;22.05;4.43;;;17.30;98.50;;;;;;5076344;28;20089;-71
2023/01/04 04:54:16;;;;;;;27.35;5.20;;;17.30;98.80;;;;;;5082515;28;20155;-69
2023/01/04 04:56:42;;;;;;;21.45;3.83;;;17.20;99.00;;;;;;5076304;28;20085;-68
2023/01/04 04:59:09;;;;;;;22.08;4.90;;;17.10;97.60;;;;;;5079203;28;20526;-68
2023/01/04 05:01:35;;;;;;;25.30;4.60;;;17.10;96.50;;;;;;5079249;28;20172;-69
2023/01/04 05:04:02;;;;;;;29.05;6.45;;;17.10;98.20;;;;;;5080432;28;20107;-68
2023/01/04 05:06:29;;;;;;;32.40;5.80;;;17.10;98.50;;;;;;5078779;28;20435;-71
2023/01/04 05:08:55;;;;;;;31.73;6.22;;;17.10;98.90;;;;;;5083691;28;20104;-68
2023/01/04 05:12:58;;;;;;;28.10;6.50;;;17.10;99.60;;;;;;5076184;28;20070;-68
2023/01/04 05:14:08;;;;;;;27.33;6.07;;;17.10;99.80;;;;;;5084684;28;20060;-71
2023/01/04 05:16:35;;;;;;;27.13;6.32;;;17.10;99.80;;;;;;5079617;28;20084;-70
2023/01/04 05:19:01;;;;;;;27.48;4.85;;;17.10;99.80;;;;;;5078630;28;20068;-71
2023/01/04 05:21:28;;;;;;;25.10;5.00;;;17.10;99.80;;;;;;5079247;28;20073;-67
2023/01/04 05:23:54;;;;;;;24.33;4.55;;;17.10;99.90;;;;;;5079185;28;20110;-70
2023/01/04 05:26:21;;;;;;;24.60;4.40;;;17.10;99.90;;;;;;5079846;28;20069;-68
2023/01/04 05:28:47;;;;;;;27.73;5.22;;;17.10;99.90;;;;;;5082345;28;20135;-69
2023/01/04 05:31:13;;;;;;;24.52;4.65;;;17.00;99.90;;;;;;5076523;28;21478;-69
2023/01/04 05:33:40;;;;;;;28.05;5.10;;;17.10;99.90;;;;;;5082138;28;20061;-68
2023/01/04 05:36:06;;;;;;;25.23;3.90;;;17.10;99.90;;;;;;5081934;28;20084;-70
2023/01/04 05:38:33;;;;;;;21.20;3.92;;;17.00;99.90;;;;;;5079276;28;20073;-69
2023/01/04 05:41:00;;;;;;;27.48;5.47;;;17.10;99.90;;;;;;5082484;28;20069;-70
2023/01/04 05:43:27;;;;;;;30.48;4.35;;;17.00;99.90;;;;;;5079883;28;20071;-72
2023/01/04 05:45:55;;;;;;;31.00;5.20;;;17.00;99.90;;;;;;5084620;28;20099;-69
2023/01/04 05:48:23;;;;;;;28.35;4.75;;;17.00;99.90;;;;;;5078562;28;20085;-69
2023/01/04 05:50:50;;;;;;;18.52;3.85;;;17.00;99.90;;;;;;5082663;28;20106;-69
2023/01/04 05:53:17;;;;;;;25.98;4.43;;;17.00;99.90;;;;;;5081422;28;20069;-70
2023/01/04 05:55:46;;;;;;;20.98;4.20;;;17.00;99.90;;;;;;5087743;28;20080;-71
2023/01/04 05:58:12;;;;;;;31.13;6.20;;;17.00;99.90;;;;;;5085439;28;20076;-74
2023/01/04 06:00:39;;;;;;;22.40;4.57;;;16.90;99.90;;;;;;5078819;28;20073;-72
2023/01/04 06:03:06;;;;;;;36.33;5.25;;;16.90;99.90;;;;;;5080693;28;20618;-72
2023/01/04 06:05:32;;;;;;;26.70;4.43;;;16.90;99.90;;;;;;5082924;28;20077;-74
2023/01/04 06:07:58;;;;;;;23.35;4.80;;;16.90;99.90;;;;;;5084356;28;20088;-70
2023/01/04 06:10:25;;;;;;;25.35;5.07;;;16.90;99.90;;;;;;5086120;28;20068;-71
2023/01/04 06:12:51;;;;;;;31.02;5.68;;;17.00;99.90;;;;;;5078060;28;20073;-70
2023/01/04 06:15:18;;;;;;;26.30;5.40;;;17.00;99.90;;;;;;5086573;28;20464;-70
2023/01/04 06:17:44;;;;;;;27.73;5.38;;;16.80;99.90;;;;;;5078024;28;20072;-69
2023/01/04 06:20:11;;;;;;;25.13;4.65;;;16.80;99.90;;;;;;5082115;28;20552;-73
2023/01/04 06:22:39;;;;;;;24.00;5.47;;;16.80;99.90;;;;;;5085674;28;20080;-70
2023/01/04 06:25:06;;;;;;;21.73;5.18;;;16.80;99.90;;;;;;5075684;28;20099;-71
2023/01/04 06:27:33;;;;;;;27.08;6.93;;;16.80;99.90;;;;;;5079110;28;20091;-70
2023/01/04 06:29:59;;;;;;;34.17;7.70;;;16.80;99.90;;;;;;5086630;28;20457;-71
2023/01/04 06:32:26;;;;;;;33.42;8.85;;;16.80;99.90;;;;;;5080810;28;20521;-71
2023/01/04 06:34:52;;;;;;;34.08;8.73;;;16.70;99.90;;;;;;5083118;28;20096;-70
2023/01/04 06:37:18;;;;;;;29.75;7.85;;;16.70;99.90;;;;;;5084024;28;20156;-70
2023/01/04 06:39:45;;;;;;;26.15;6.70;;;16.60;99.90;;;;;;5082715;28;20087;-70
2023/01/04 06:42:43;;;;;;;29.15;6.43;;;16.60;99.90;;;;;;5081835;28;20073;-68
2023/01/04 06:44:57;;;;;;;29.27;7.15;;;16.60;99.90;;;;;;5083210;28;20496;-70
2023/01/04 06:47:24;;;;;;;33.92;6.10;;;16.60;99.90;;;;;;5084171;28;20541;-69
2023/01/04 06:49:51;;;;;;;32.40;5.03;;;16.60;99.90;;;;;;5080816;28;20155;-72
2023/01/04 06:52:17;;;;;;;28.60;5.55;;;16.60;99.90;;;;;;5078105;28;20199;-70
2023/01/04 06:54:44;;;;;;;26.23;6.03;;;16.70;99.90;;;;;;5081290;28;20514;-69
2023/01/04 06:57:10;;;;;;;29.92;5.45;;;16.60;99.90;;;;;;5084597;28;20081;-69
2023/01/04 06:59:37;;;;;;;28.33;4.85;;;16.60;99.90;;;;;;5083762;28;20079;-72
2023/01/04 07:02:04;;;;;;;27.73;5.55;;;16.60;99.90;;;;;;5075713;28;20117;-70
2023/01/04 07:04:30;;;;;;;34.33;5.78;;;16.60;99.90;;;;;;5079777;28;20092;-71
2023/01/04 07:06:56;;;;;;;32.75;5.55;;;16.60;99.90;;;;;;5079533;28;20511;-71
2023/01/04 07:09:23;;;;;;;29.60;5.82;;;16.50;99.90;;;;;;5077442;28;20099;-74
2023/01/04 07:11:49;;;;;;;29.98;4.93;;;16.50;99.90;;;;;;5081931;28;20119;-75
2023/01/04 07:14:16;;;;;;;31.15;6.20;;;16.50;99.90;;;;;;5074735;28;20077;-71
2023/01/04 07:16:42;;;;;;;29.33;5.15;;;16.50;99.90;;;;;;5073947;28;20108;-70
2023/01/04 07:19:09;;;;;;;34.78;5.75;;;16.40;99.90;;;;;;5078640;28;20081;-71
2023/01/04 07:21:35;;;;;;;29.67;6.05;;;16.30;99.90;;;;;;5081340;28;20491;-73
2023/01/04 07:24:01;;;;;;;25.30;5.47;;;16.30;99.90;;;;;;5085649;28;20100;-71
2023/01/04 07:26:28;;;;;;;40.28;6.20;;;16.40;99.90;;;;;;5076264;28;20097;-72
2023/01/04 07:31:39;;;;;;;29.45;5.95;;;16.30;99.90;;;;;;5081043;28;20095;-73
2023/01/04 07:34:06;;;;;;;36.30;6.38;;;16.20;99.90;;;;;;5077423;28;20138;-70
2023/01/04 07:36:32;;;;;;;32.35;5.07;;;16.10;99.90;;;;;;5081611;28;20073;-72
2023/01/04 07:39:00;;;;;;;36.00;6.05;;;16.10;99.90;;;;;;5080719;28;20158;-71
2023/01/04 07:41:26;;;;;;;21.38;4.50;;;16.20;99.90;;;;;;5078610;28;20069;-70
2023/01/04 07:43:53;;;;;;;34.03;4.60;;;16.10;99.90;;;;;;5084537;28;20163;-72
2023/01/04 07:46:20;;;;;;;24.02;4.53;;;16.00;99.90;;;;;;5079167;28;20077;-72
2023/01/04 07:48:47;;;;;;;32.65;5.65;;;16.00;99.90;;;;;;5086170;28;20092;-72
2023/01/04 07:51:13;;;;;;;25.02;5.10;;;16.00;99.90;;;;;;5084504;28;20115;-69
2023/01/04 07:53:40;;;;;;;27.30;4.80;;;16.00;99.90;;;;;;5079561;28;20203;-71
2023/01/04 07:56:07;;;;;;;35.63;5.88;;;16.10;99.90;;;;;;5083590;28;20064;-72
2023/01/04 07:58:33;;;;;;;30.08;5.57;;;16.10;99.90;;;;;;5078954;28;20073;-73
2023/01/04 08:01:07;;;;;;;31.80;5.70;;;16.20;99.90;;;;;;5075612;28;20171;-72
2023/01/04 08:03:34;;;;;;;24.20;4.18;;;16.20;99.90;;;;;;5076699;28;20068;-69
2023/01/04 08:06:05;;;;;;;26.58;5.03;;;16.20;99.90;;;;;;5081215;28;20552;-72
2023/01/04 08:08:31;;;;;;;29.08;4.85;;;16.20;99.90;;;;;;5079846;28;20130;-70
2023/01/04 08:11:06;;;;;;;30.38;4.88;;;16.30;99.90;;;;;;5079152;28;20062;-69
2023/01/04 08:13:32;;;;;;;37.85;6.35;;;16.30;99.90;;;;;;5077907;28;20173;-72
2023/01/04 08:15:59;;;;;;;23.73;4.85;;;16.40;99.90;;;;;;5077399;28;20065;-72
2023/01/04 08:18:25;;;;;;;23.27;4.75;;;16.30;99.90;;;;;;5081781;28;20076;-72
2023/01/04 08:21:05;;;;;;;28.33;5.75;;;16.30;99.90;;;;;;5082749;28;20414;-70
2023/01/04 08:23:33;;;;;;;34.80;6.15;;;16.20;99.90;;;;;;5073373;28;20077;-73
2023/01/04 08:26:09;;;;;;;28.85;5.70;;;16.30;99.90;;;;;;5079462;28;20434;-69
2023/01/04 08:28:35;;;;;;;27.67;5.03;;;16.20;99.90;;;;;;5077710;28;20092;-69
2023/01/04 08:31:14;;;;;;;30.67;6.10;;;16.30;99.90;;;;;;5077538;28;20079;-70
2023/01/04 08:33:41;;;;;;;27.52;5.90;;;16.30;99.90;;;;;;5083172;28;20573;-66
2023/01/04 08:36:16;;;;;;;23.27;5.00;;;16.30;99.90;;;;;;5080488;28;20083;-69
2023/01/04 08:38:42;;;;;;;23.80;5.97;;;16.30;99.90;;;;;;5074866;28;20214;-68
2023/01/04 08:41:09;;;;;;;25.38;5.65;;;16.30;99.90;;;;;;5078609;28;20137;-69
2023/01/04 08:43:35;;;;;;;24.98;5.43;;;16.30;99.90;;;;;;5078877;28;20073;-68
2023/01/04 08:46:03;;;;;;;31.63;5.47;;;16.30;99.90;;;;;;5079276;28;20158;-70
2023/01/04 08:48:30;;;;;;;28.13;5.65;;;16.30;99.90;;;;;;5076314;28;20092;-69
2023/01/04 08:51:01;;;;;;;29.90;5.38;;;16.20;99.90;;;;;;5077301;28;20398;-68
2023/01/04 08:53:28;;;;;;;25.70;4.70;;;16.20;99.90;;;;;;5076069;28;20065;-68
2023/01/04 08:55:55;;;;;;;20.50;4.35;;;16.20;99.90;;;;;;5081980;28;20544;-71
2023/01/04 08:58:22;;;;;;;23.73;4.68;;;16.10;99.90;;;;;;5079194;28;20069;-70
2023/01/04 09:00:49;;;;;;;28.48;4.53;;;16.20;99.90;;;;;;5082362;28;20108;-69
2023/01/04 09:03:16;;;;;;;23.58;4.22;;;16.10;99.90;;;;;;5078321;28;20116;-69
2023/01/04 09:05:43;;;;;;;21.08;4.00;;;16.20;99.90;;;;;;5083571;28;20092;-68
2023/01/04 09:08:10;;;;;;;23.88;4.47;;;16.20;99.90;;;;;;5076784;28;20191;-71
2023/01/04 09:10:38;;;;;;;26.58;4.38;;;16.20;99.90;;;;;;5077345;28;20062;-69
2023/01/04 09:13:05;;;;;;;24.50;4.47;;;16.10;99.90;;;;;;5074839;28;20115;-70
2023/01/04 09:15:32;;;;;;;31.83;7.30;;;16.10;99.90;;;;;;5067920;28;20065;-69
2023/01/04 09:17:59;;;;;;;21.30;4.47;;;16.10;99.90;;;;;;5069188;28;20087;-68
2023/01/04 09:20:25;;;;;;;24.98;4.65;;;16.10;99.90;;;;;;5069244;28;20091;-69
2023/01/04 09:22:52;;;;;;;24.50;3.95;;;16.10;99.90;;;;;;5069387;28;20080;-69
2023/01/04 09:25:18;;;;;;;25.38;4.25;;;16.10;99.90;;;;;;5067541;28;20080;-69
2023/01/04 09:27:44;;;;;;;29.63;4.60;;;16.00;99.90;;;;;;5068440;28;20124;-70
2023/01/04 09:30:11;;;;;;;22.80;4.82;;;16.00;99.90;;;;;;5070945;28;20119;-70
2023/01/04 09:32:38;;;;;;;18.55;4.07;;;16.00;99.90;;;;;;5068928;28;20176;-68
2023/01/04 09:35:04;;;;;;;20.95;4.50;;;16.00;99.90;;;;;;5067059;28;20065;-70
2023/01/04 09:37:31;;;;;;;28.70;5.75;;;16.00;99.90;;;;;;5067597;28;20081;-67
2023/01/04 09:39:57;;;;;;;18.88;4.25;;;16.00;99.90;;;;;;5068368;28;20069;-68
2023/01/04 09:42:37;;;;;;;23.80;5.30;;;15.90;99.90;;;;;;5071040;28;20176;-68
2023/01/04 09:45:23;;;;;;;23.98;4.70;;;16.00;99.90;;;;;;5068097;28;20505;-70
2023/01/04 09:47:56;;;;;;;23.42;4.68;;;16.00;99.90;;;;;;5066951;28;20139;-66
2023/01/04 09:50:33;;;;;;;23.30;4.18;;;16.00;99.90;;;;;;5067627;28;20546;-69
2023/01/04 09:53:25;;;;;;;;;;;16.00;99.90;;;;;;5069644;28;20158;-70
2023/01/04 09:55:55;;;;;;;23.45;4.53;;;16.00;99.90;;;;;;5063412;28;19956;-68
2023/01/04 09:58:29;;;;;;;26.00;5.03;;;16.00;99.90;;;;;;5074586;28;20085;-69
2023/01/04 10:01:10;;;;;;;20.45;3.83;;;15.90;99.90;;;;;;5076164;28;20081;-68
2023/01/04 10:03:55;;;;;;;20.45;4.00;;;15.90;99.90;;;;;;5071302;28;20069;-70
2023/01/04 10:06:21;;;;;;;39.92;11.32;;;15.80;99.90;;;;;;5069335;28;20077;-66
2023/01/04 10:08:48;;;;;;;17.15;3.55;;;16.20;99.90;;;;;;5073993;28;20188;-64
2023/01/04 10:11:37;;;;;;;28.42;4.60;;;16.70;99.90;;;;;;5072834;28;20069;-65
2023/01/04 10:14:25;;;;;;;16.77;3.40;;;16.80;99.90;;;;;;5074257;28;20180;-65
2023/01/04 10:17:06;;;;;;;17.10;3.50;;;17.10;99.90;;;;;;5071462;28;20085;-66
2023/01/04 10:19:32;;;;;;;16.73;3.75;;;17.40;99.90;;;;;;5072876;28;20104;-67
2023/01/04 10:22:24;;;;;;;20.10;4.38;;;17.70;99.90;;;;;;5072918;28;20069;-67
2023/01/04 10:25:17;;;;;;;19.55;4.15;;;17.80;99.90;;;;;;5071159;28;20522;-67
2023/01/04 10:27:57;;;;;;;27.38;5.55;;;17.50;99.90;;;;;;5070674;28;20081;-67
2023/01/04 10:30:39;;;;;;;22.65;5.15;;;17.50;99.90;;;;;;5071616;28;20073;-65
2023/01/04 10:33:14;;;;;;;18.65;4.55;;;17.60;99.90;;;;;;5071384;28;20152;-64
2023/01/04 10:35:44;;;;;;;27.95;5.25;;;17.90;99.90;;;;;;5071081;28;20072;-65
2023/01/04 10:38:27;;;;;;;21.90;5.20;;;17.80;99.90;;;;;;5069964;28;20581;-65
2023/01/04 10:40:56;;;;;;;20.58;5.43;;;17.80;99.90;;;;;;5071456;28;20077;-67
2023/01/04 10:43:44;;;;;;;22.02;4.65;;;17.70;99.90;;;;;;5070027;28;20092;-65
2023/01/04 10:46:21;;;;;;;17.40;4.68;;;17.70;99.90;;;;;;5070821;28;20534;-65
2023/01/04 10:48:59;;;;;;;28.35;5.63;;;17.70;99.90;;;;;;5069276;28;20611;-64
2023/01/04 10:51:37;;;;;;;22.40;4.43;;;17.60;99.90;;;;;;5071334;28;20100;-67
2023/01/04 10:54:18;;;;;;;24.35;4.68;;;17.60;99.90;;;;;;5072330;28;20069;-66
2023/01/04 10:56:56;;;;;;;20.63;4.68;;;17.50;99.90;;;;;;5072518;28;20073;-66
2023/01/04 10:59:47;;;;;;;19.25;4.40;;;17.60;99.90;;;;;;5071953;28;20095;-65
2023/01/04 11:02:39;;;;;;;19.35;3.92;;;17.60;99.90;;;;;;5069349;28;20116;-65
2023/01/04 11:05:15;;;;;;;26.63;5.05;;;17.50;99.90;;;;;;5067922;28;20123;-65
2023/01/04 11:08:07;;;;;;;16.30;4.53;;;17.40;99.90;;;;;;5069566;28;20088;-65
2023/01/04 11:10:54;;;;;;;23.25;4.35;;;17.40;99.90;;;;;;5055389;28;20089;-66
2023/01/04 11:13:21;;;;;;;20.23;4.93;;;17.40;99.90;;;;;;5069268;28;20165;-64
2023/01/04 11:15:48;;;;;;;28.10;5.00;;;17.40;99.90;;;;;;5067139;28;20438;-63
2023/01/04 11:18:15;;;;;;;27.33;5.05;;;17.60;99.90;;;;;;5070064;28;20076;-67
2023/01/04 11:20:42;;;;;;;19.90;4.53;;;17.40;99.90;;;;;;5072710;28;20080;-64
2023/01/04 11:23:13;;;;;;;24.90;4.57;;;17.60;99.90;;;;;;5069953;28;20431;-65
2023/01/04 11:25:58;;;;;;;23.73;4.95;;;17.40;99.90;;;;;;5069547;28;20068;-65
2023/01/04 11:28:27;;;;;;;20.95;4.45;;;17.40;99.90;;;;;;5070732;28;20154;-66
2023/01/04 11:30:56;;;;;;;23.02;5.05;;;17.30;99.90;;;;;;5067500;28;20123;-63
2023/01/04 11:33:23;;;;;;;22.27;4.88;;;17.20;99.90;;;;;;5069699;28;20080;-64
2023/01/04 11:35:58;;;;;;;25.13;4.97;;;17.10;99.90;;;;;;5069317;28;20096;-65
2023/01/04 11:38:26;;;;;;;23.88;4.60;;;17.00;99.90;;;;;;5069348;28;20156;-67
2023/01/04 11:41:06;;;;;;;22.50;4.88;;;16.90;99.90;;;;;;5071848;28;20161;-65
2023/01/04 11:43:37;;;;;;;24.55;5.03;;;16.90;99.90;;;;;;5069790;28;20076;-65
2023/01/04 11:46:24;;;;;;;23.05;5.35;;;16.90;99.90;;;;;;5070027;28;20160;-66
2023/01/04 11:48:51;;;;;;;25.60;4.40;;;17.00;99.90;;;;;;5069616;28;20546;-67
2023/01/04 11:51:32;;;;;;;19.40;3.95;;;17.10;99.90;;;;;;5068873;28;20457;-66
2023/01/04 11:54:13;;;;;;;15.80;4.15;;;17.00;99.90;;;;;;5069088;28;20144;-66
2023/01/04 11:56:58;;;;;;;19.55;4.32;;;17.10;99.90;;;;;;5069810;28;20081;-64
2023/01/04 11:59:24;;;;;;;21.73;4.35;;;16.90;99.90;;;;;;5071572;28;20171;-65
2023/01/04 12:02:10;;;;;;;19.42;3.95;;;17.00;99.90;;;;;;5072205;28;20117;-64
2023/01/04 12:04:36;;;;;;;18.77;3.55;;;16.90;99.90;;;;;;5069696;28;20088;-66
2023/01/04 12:07:14;;;;;;;19.27;4.78;;;17.00;99.90;;;;;;5069028;28;20092;-67
2023/01/04 12:09:41;;;;;;;22.65;4.57;;;16.80;99.90;;;;;;5068740;28;20065;-67
2023/01/04 12:12:11;;;;;;;20.98;4.78;;;17.00;99.90;;;;;;5069067;28;20109;-65
2023/01/04 12:14:44;;;;;;;27.48;5.13;;;17.00;99.90;;;;;;5069879;28;20065;-66
2023/01/04 12:17:23;;;;;;;27.23;7.68;;;17.00;99.90;;;;;;5068783;28;20498;-67
2023/01/04 12:19:53;;;;;;;24.38;7.88;;;17.00;99.90;;;;;;5068167;28;20079;-65
2023/01/04 12:22:39;;;;;;;25.73;8.55;;;17.00;99.90;;;;;;5068826;28;20073;-67
2023/01/04 12:25:35;;;;;;;28.52;7.82;;;16.90;99.90;;;;;;5069006;28;20100;-66
2023/01/04 12:28:01;;;;;;;19.77;5.82;;;16.60;99.90;;;;;;5066042;28;20170;-65
2023/01/04 12:30:46;;;;;;;19.88;4.60;;;16.50;99.90;;;;;;5067679;28;20110;-65
2023/01/04 12:33:33;;;;;;;22.30;4.32;;;16.50;99.90;;;;;;5068090;28;20112;-67
2023/01/04 12:36:05;;;;;;;18.83;4.05;;;16.50;99.90;;;;;;5068454;28;20489;-67
2023/01/04 12:38:58;;;;;;;21.52;4.32;;;16.50;99.90;;;;;;5068249;28;20075;-67
2023/01/04 12:41:33;;;;;;;22.42;4.60;;;16.60;99.90;;;;;;5068730;28;20156;-67
2023/01/04 12:44:22;;;;;;;27.30;4.78;;;16.50;99.90;;;;;;5067471;28;20089;-65
2023/01/04 12:49:39;;;;;;;18.88;4.10;;;16.40;99.90;;;;;;5070366;28;20176;-67
2023/01/04 12:52:08;;;;;;;24.63;4.43;;;16.30;99.90;;;;;;5069494;28;20176;-66
2023/01/04 12:54:56;;;;;;;20.10;4.15;;;16.30;99.90;;;;;;5069223;28;20073;-67
2023/01/04 12:57:34;;;;;;;20.38;4.63;;;16.20;99.90;;;;;;5068820;28;20651;-64
2023/01/04 13:00:05;;;;;;;26.23;4.53;;;16.20;99.90;;;;;;5067522;28;20064;-66
2023/01/04 13:02:58;;;;;;;24.67;5.15;;;16.30;99.90;;;;;;5068777;28;20166;-66
2023/01/04 13:05:31;;;;;;;24.70;4.50;;;16.30;99.90;;;;;;5071425;28;20234;-65
2023/01/04 13:07:59;;;;;;;18.15;4.60;;;16.20;99.90;;;;;;5068520;28;20081;-65
2023/01/04 13:10:37;;;;;;;21.23;4.47;;;16.20;99.90;;;;;;5068912;28;20697;-66
2023/01/04 13:13:29;;;;;;;19.38;4.38;;;16.20;99.90;;;;;;5070858;28;20081;-65
2023/01/04 13:16:33;;;;;;;22.45;4.30;;;16.20;99.90;;;;;;5070097;28;20501;-65
2023/01/04 13:19:02;;;;;;;23.10;4.00;;;16.30;99.90;;;;;;5067395;28;20177;-66
2023/01/04 13:21:46;;;;;;;24.63;4.38;;;16.30;99.90;;;;;;5067648;28;20077;-64
2023/01/04 13:24:30;;;;;;;21.95;4.63;;;16.30;99.90;;;;;;5068105;28;20069;-66
2023/01/04 13:27:05;;;;;;;28.40;5.35;;;16.20;99.90;;;;;;5067122;28;20084;-66
2023/01/04 13:29:39;;;;;;;22.83;5.90;;;16.20;99.90;;;;;;5069393;28;20093;-68
2023/01/04 13:32:15;;;;;;;29.58;5.18;;;16.20;99.90;;;;;;5050426;28;20073;-68
2023/01/04 13:34:42;;;;;;;25.67;4.05;;;16.10;99.90;;;;;;5068485;28;20068;-67
2023/01/04 13:37:10;;;;;;;;;;;16.00;99.90;;;;;;5070262;28;20065;-65
2023/01/04 13:39:51;;;;;;;28.52;4.40;;;15.80;99.90;;;;;;5070143;28;19957;-67
2023/01/04 13:42:25;;;;;;;27.75;4.68;;;15.80;99.90;;;;;;5069267;28;20092;-66
2023/01/04 13:44:57;;;;;;;22.67;3.90;;;15.90;99.90;;;;;;5071270;28;20171;-66